Time;durP1;ratioP1;P1;durP2;ratioP2;P2;SDS_P1;SDS_P2;PMS_P1;PMS_P2;Temp;Humidity;BMP_temperature;BMP_pressure;BME280_temperature;BME280_humidity;BME280_pressure;Samples;Min_cycle;Max_cycle;Signal;HPM_P1;HPM_P2
2022/09/19 00:01:34;;;;;;;0.20;0.20;;;;;;;;;;1889650;75;26824;-62
2022/09/19 00:04:02;;;;;;;0.20;0.20;;;;;;;;;;1894698;75;26261;-64
2022/09/19 00:06:30;;;;;;;0.20;0.20;;;;;;;;;;1888971;75;26273;-62
2022/09/19 00:08:58;;;;;;;0.30;0.30;;;;;;;;;;1907650;75;26322;-61
2022/09/19 00:11:26;;;;;;;0.17;0.17;;;;;;;;;;1914993;75;26241;-62
2022/09/19 00:13:56;;;;;;;0.20;0.20;;;;;;;;;;1910180;75;26232;-62
2022/09/19 00:16:38;;;;;;;0.10;0.10;;;;;;;;;;1913757;75;26257;-61
2022/09/19 00:19:07;;;;;;;0.20;0.20;;;;;;;;;;1902843;75;26264;-62
2022/09/19 00:21:36;;;;;;;0.10;0.10;;;;;;;;;;1897546;75;26274;-62
2022/09/19 00:26:49;;;;;;;0.28;0.28;;;;;;;;;;1877941;75;26745;-63
2022/09/19 00:29:18;;;;;;;0.20;0.20;;;;;;;;;;1875510;76;27398;-61
2022/09/19 00:31:45;;;;;;;0.10;0.10;;;;;;;;;;1889150;75;26259;-62
2022/09/19 00:34:14;;;;;;;0.20;0.20;;;;;;;;;;1874679;76;26917;-63
2022/09/19 00:36:42;;;;;;;0.15;0.15;;;;;;;;;;1879417;76;26724;-61
2022/09/19 00:39:10;;;;;;;0.20;0.20;;;;;;;;;;1877299;76;26197;-63
2022/09/19 00:41:38;;;;;;;0.10;0.10;;;;;;;;;;1879312;75;27374;-63
2022/09/19 00:44:25;;;;;;;0.17;0.17;;;;;;;;;;1879588;76;26236;-61
2022/09/19 00:46:54;;;;;;;0.20;0.20;;;;;;;;;;1909749;75;26284;-62
2022/09/19 00:49:22;;;;;;;0.17;0.17;;;;;;;;;;1908347;75;26291;-62
2022/09/19 00:51:52;;;;;;;0.20;0.20;;;;;;;;;;1906213;75;26743;-62
2022/09/19 00:54:23;;;;;;;0.20;0.20;;;;;;;;;;1883290;75;26688;-64
2022/09/19 00:56:52;;;;;;;0.20;0.20;;;;;;;;;;1879292;75;26303;-61
2022/09/19 00:59:23;;;;;;;0.20;0.20;;;;;;;;;;1879515;76;26198;-61
2022/09/19 01:01:53;;;;;;;0.28;0.28;;;;;;;;;;1879173;76;26708;-62
2022/09/19 01:04:22;;;;;;;0.10;0.10;;;;;;;;;;1894527;75;26218;-63
2022/09/19 01:06:55;;;;;;;0.20;0.20;;;;;;;;;;1895171;75;26377;-63
2022/09/19 01:09:35;;;;;;;0.30;0.30;;;;;;;;;;1887463;76;26312;-60
2022/09/19 01:12:03;;;;;;;0.20;0.20;;;;;;;;;;1867178;76;26288;-64
2022/09/19 01:14:46;;;;;;;0.17;0.17;;;;;;;;;;1870726;76;26536;-61
2022/09/19 01:17:19;;;;;;;0.20;0.20;;;;;;;;;;1880276;76;26203;-63
2022/09/19 01:19:59;;;;;;;0.20;0.20;;;;;;;;;;1872587;76;26241;-62
2022/09/19 01:22:34;;;;;;;0.10;0.10;;;;;;;;;;1880972;76;26678;-60
2022/09/19 01:25:09;;;;;;;0.33;0.20;;;;;;;;;;1878509;76;26345;-63
2022/09/19 01:27:54;;;;;;;0.20;0.20;;;;;;;;;;1873305;75;26405;-63
2022/09/19 01:30:22;;;;;;;0.20;0.20;;;;;;;;;;1868853;76;26257;-61
2022/09/19 01:32:54;;;;;;;0.20;0.20;;;;;;;;;;1858429;76;27419;-61
2022/09/19 01:35:23;;;;;;;0.20;0.20;;;;;;;;;;1858184;76;26555;-62
2022/09/19 01:37:54;;;;;;;0.10;0.10;;;;;;;;;;1831069;76;26250;-62
2022/09/19 01:40:22;;;;;;;0.20;0.20;;;;;;;;;;1850566;76;26315;-60
2022/09/19 01:42:54;;;;;;;0.23;0.23;;;;;;;;;;1856709;76;26322;-61
2022/09/19 01:45:21;;;;;;;1.05;0.28;;;;;;;;;;1838321;76;26264;-61
2022/09/19 01:47:56;;;;;;;0.17;0.17;;;;;;;;;;1825642;76;26665;-61
2022/09/19 01:50:31;;;;;;;0.20;0.20;;;;;;;;;;1855768;76;26689;-62
2022/09/19 01:53:01;;;;;;;0.25;0.25;;;;;;;;;;1860999;76;26361;-63
2022/09/19 01:55:47;;;;;;;0.30;0.30;;;;;;;;;;1857988;76;27342;-63
2022/09/19 01:58:22;;;;;;;0.20;0.20;;;;;;;;;;1858073;76;26849;-63
2022/09/19 02:01:06;;;;;;;0.20;0.20;;;;;;;;;;1856430;76;26182;-61
2022/09/19 02:03:37;;;;;;;0.17;0.17;;;;;;;;;;1849281;76;26314;-65
2022/09/19 02:06:12;;;;;;;0.20;0.20;;;;;;;;;;1835489;76;26268;-63
2022/09/19 02:08:47;;;;;;;0.20;0.20;;;;;;;;;;1844228;76;26284;-61
2022/09/19 02:11:18;;;;;;;0.15;0.15;;;;;;;;;;1856873;76;26341;-63
2022/09/19 02:13:48;;;;;;;0.10;0.10;;;;;;;;;;1857847;76;26285;-62
2022/09/19 02:16:17;;;;;;;0.30;0.30;;;;;;;;;;1854943;76;26323;-61
2022/09/19 02:18:49;;;;;;;0.30;0.30;;;;;;;;;;1855015;76;26270;-63
2022/09/19 02:21:18;;;;;;;0.10;0.10;;;;;;;;;;1854219;76;26745;-63
2022/09/19 02:23:47;;;;;;;0.28;0.28;;;;;;;;;;1861397;76;26271;-62
2022/09/19 02:26:19;;;;;;;0.20;0.20;;;;;;;;;;1859162;76;26272;-63
2022/09/19 02:28:48;;;;;;;0.30;0.30;;;;;;;;;;1866651;75;26305;-63
2022/09/19 02:31:16;;;;;;;0.10;0.10;;;;;;;;;;1865723;75;26248;-62
2022/09/19 02:33:46;;;;;;;0.20;0.20;;;;;;;;;;1870059;75;26318;-63
2022/09/19 02:36:17;;;;;;;0.42;0.42;;;;;;;;;;1870097;75;26272;-65
2022/09/19 02:38:49;;;;;;;0.25;0.25;;;;;;;;;;1839703;75;26718;-62
2022/09/19 02:41:36;;;;;;;0.23;0.23;;;;;;;;;;1841674;75;26751;-61
2022/09/19 02:44:05;;;;;;;0.20;0.20;;;;;;;;;;1853378;77;26251;-60
2022/09/19 02:46:36;;;;;;;0.30;0.30;;;;;;;;;;1855706;77;26251;-60
2022/09/19 02:49:08;;;;;;;0.10;0.10;;;;;;;;;;1850631;77;26299;-60
2022/09/19 02:51:39;;;;;;;0.10;0.10;;;;;;;;;;1863287;76;26211;-60
2022/09/19 02:54:11;;;;;;;0.20;0.20;;;;;;;;;;1862553;76;26247;-63
2022/09/19 02:56:41;;;;;;;0.57;0.20;;;;;;;;;;1861193;77;26263;-62
2022/09/19 02:59:10;;;;;;;0.30;0.23;;;;;;;;;;1853410;77;26838;-61
2022/09/19 03:01:39;;;;;;;0.20;0.20;;;;;;;;;;1849719;77;26263;-63
2022/09/19 03:04:19;;;;;;;0.20;0.20;;;;;;;;;;1857271;77;26294;-62
2022/09/19 03:06:45;;;;;;;0.20;0.20;;;;;;;;;;1855062;77;26331;-62
2022/09/19 03:09:14;;;;;;;0.20;0.20;;;;;;;;;;1858291;77;26240;-62
2022/09/19 03:11:42;;;;;;;0.20;0.20;;;;;;;;;;1859325;77;26747;-62
2022/09/19 03:14:10;;;;;;;0.13;0.13;;;;;;;;;;1861214;77;26648;-63
2022/09/19 03:16:39;;;;;;;0.23;0.23;;;;;;;;;;1864680;77;26282;-63
2022/09/19 03:19:07;;;;;;;0.23;0.20;;;;;;;;;;1859184;77;26267;-62
2022/09/19 03:21:36;;;;;;;0.20;0.20;;;;;;;;;;1857477;77;26329;-62
2022/09/19 03:24:03;;;;;;;0.10;0.10;;;;;;;;;;1857502;77;26278;-61
2022/09/19 03:26:35;;;;;;;0.20;0.20;;;;;;;;;;1856133;77;26796;-61
2022/09/19 03:29:04;;;;;;;0.20;0.20;;;;;;;;;;1857426;77;26235;-63
2022/09/19 03:31:31;;;;;;;0.20;0.20;;;;;;;;;;1855600;77;26269;-62
2022/09/19 03:33:58;;;;;;;0.20;0.20;;;;;;;;;;1855919;77;26286;-62
2022/09/19 03:36:28;;;;;;;0.20;0.20;;;;;;;;;;1858957;77;26255;-61
2022/09/19 03:39:01;;;;;;;0.30;0.30;;;;;;;;;;1863372;77;26385;-62
2022/09/19 03:41:24;;;;;;;0.10;0.10;;;;;;;;;;1858235;77;26382;-61
2022/09/19 03:43:51;;;;;;;0.20;0.20;;;;;;;;;;1856850;76;26298;-62
2022/09/19 03:46:20;;;;;;;0.10;0.10;;;;;;;;;;1853800;77;26329;-63
2022/09/19 03:48:47;;;;;;;0.20;0.20;;;;;;;;;;1860944;77;26333;-61
2022/09/19 03:51:16;;;;;;;0.10;0.10;;;;;;;;;;1862731;77;26687;-61
2022/09/19 03:53:43;;;;;;;0.15;0.15;;;;;;;;;;1859698;77;26199;-62
2022/09/19 03:56:11;;;;;;;0.10;0.10;;;;;;;;;;1861969;77;26251;-62
2022/09/19 03:58:39;;;;;;;0.20;0.20;;;;;;;;;;1859281;76;26251;-62
2022/09/19 04:01:07;;;;;;;0.20;0.20;;;;;;;;;;1849447;77;26263;-63
2022/09/19 04:03:35;;;;;;;0.10;0.10;;;;;;;;;;1855465;77;26755;-61
2022/09/19 04:06:04;;;;;;;0.20;0.20;;;;;;;;;;1852984;77;26318;-63
2022/09/19 04:08:32;;;;;;;0.10;0.10;;;;;;;;;;1857097;77;26263;-62
2022/09/19 04:10:59;;;;;;;0.20;0.20;;;;;;;;;;1856104;77;27353;-61
2022/09/19 04:13:29;;;;;;;0.20;0.20;;;;;;;;;;1846183;77;26254;-62
2022/09/19 04:15:57;;;;;;;0.20;0.20;;;;;;;;;;1846482;77;26240;-62
2022/09/19 04:18:24;;;;;;;0.15;0.15;;;;;;;;;;1850178;77;26258;-62
2022/09/19 04:20:51;;;;;;;0.20;0.10;;;;;;;;;;1866139;76;26322;-62
2022/09/19 04:23:18;;;;;;;0.10;0.10;;;;;;;;;;1866935;77;26347;-61
2022/09/19 04:25:46;;;;;;;0.13;0.13;;;;;;;;;;1867596;76;26232;-63
2022/09/19 04:28:16;;;;;;;0.10;0.10;;;;;;;;;;1866896;77;26751;-61
2022/09/19 04:30:43;;;;;;;0.20;0.10;;;;;;;;;;1848066;76;26632;-62
2022/09/19 04:33:12;;;;;;;0.10;0.10;;;;;;;;;;1838111;77;26255;-62
2022/09/19 04:35:42;;;;;;;0.75;0.20;;;;;;;;;;1842622;77;26251;-61
2022/09/19 04:38:11;;;;;;;0.17;0.17;;;;;;;;;;1852851;77;26263;-63
2022/09/19 04:40:39;;;;;;;0.20;0.20;;;;;;;;;;1852735;77;26339;-62
2022/09/19 04:43:10;;;;;;;0.20;0.20;;;;;;;;;;1840168;77;26357;-61
2022/09/19 04:45:39;;;;;;;0.30;0.30;;;;;;;;;;1839585;77;27176;-62
2022/09/19 04:48:07;;;;;;;0.20;0.20;;;;;;;;;;1836531;77;26554;-64
2022/09/19 04:50:35;;;;;;;0.33;0.10;;;;;;;;;;1841480;77;26243;-63
2022/09/19 04:53:03;;;;;;;0.25;0.20;;;;;;;;;;1833871;77;26743;-65
2022/09/19 04:55:30;;;;;;;0.40;0.30;;;;;;;;;;1839190;77;26250;-62
2022/09/19 04:58:00;;;;;;;0.17;0.17;;;;;;;;;;1834103;77;26349;-62
2022/09/19 05:00:39;;;;;;;0.17;0.17;;;;;;;;;;1840179;77;26274;-61
2022/09/19 05:03:08;;;;;;;2.08;0.20;;;;;;;;;;1838370;77;26537;-63
2022/09/19 05:05:36;;;;;;;3.22;0.35;;;;;;;;;;1831093;77;26735;-63
2022/09/19 05:08:04;;;;;;;1.37;0.62;;;;;;;;;;1838472;77;26957;-63
2022/09/19 05:10:33;;;;;;;0.30;0.20;;;;;;;;;;1834861;77;26731;-62
2022/09/19 05:13:00;;;;;;;1.62;0.25;;;;;;;;;;1834771;77;26271;-62
2022/09/19 05:15:27;;;;;;;3.65;0.40;;;;;;;;;;1834325;77;26581;-61
2022/09/19 05:17:55;;;;;;;3.72;0.45;;;;;;;;;;1827054;77;26309;-63
2022/09/19 05:20:26;;;;;;;1.50;0.47;;;;;;;;;;1838497;77;26339;-61
2022/09/19 05:23:00;;;;;;;4.65;0.72;;;;;;;;;;1832410;77;26774;-64
2022/09/19 05:25:28;;;;;;;1.02;0.60;;;;;;;;;;1855396;77;26308;-60
2022/09/19 05:28:06;;;;;;;5.87;1.00;;;;;;;;;;1865086;77;26272;-61
2022/09/19 05:30:27;;;;;;;1.05;0.50;;;;;;;;;;1865864;77;26307;-61
2022/09/19 05:32:54;;;;;;;3.15;0.50;;;;;;;;;;1863754;77;26260;-61
2022/09/19 05:35:22;;;;;;;3.05;0.65;;;;;;;;;;1866797;77;26661;-61
2022/09/19 05:37:51;;;;;;;3.70;0.68;;;;;;;;;;1859532;77;26249;-63
2022/09/19 05:40:18;;;;;;;3.58;0.60;;;;;;;;;;1860963;77;26294;-63
2022/09/19 05:42:59;;;;;;;6.65;0.85;;;;;;;;;;1847823;77;26242;-60
2022/09/19 05:45:22;;;;;;;5.80;0.60;;;;;;;;;;1862734;76;26389;-60
2022/09/19 05:47:50;;;;;;;2.65;0.70;;;;;;;;;;1861815;77;26533;-65
2022/09/19 05:50:17;;;;;;;3.02;0.50;;;;;;;;;;1863849;77;26266;-63
2022/09/19 05:55:30;;;;;;;4.10;0.55;;;;;;;;;;1862891;77;26419;-59
2022/09/19 05:57:58;;;;;;;1.75;0.40;;;;;;;;;;1864454;77;26278;-58
2022/09/19 06:00:26;;;;;;;0.95;0.72;;;;;;;;;;1856632;77;26270;-56
2022/09/19 06:02:57;;;;;;;2.92;0.45;;;;;;;;;;1864478;77;26730;-60
2022/09/19 06:05:25;;;;;;;2.30;0.50;;;;;;;;;;1850150;77;26996;-55
2022/09/19 06:07:55;;;;;;;3.77;0.75;;;;;;;;;;1838632;77;26306;-57
2022/09/19 06:10:22;;;;;;;0.80;0.47;;;;;;;;;;1841066;77;26333;-57
2022/09/19 06:12:50;;;;;;;0.53;0.25;;;;;;;;;;1840682;77;26393;-60
2022/09/19 06:15:17;;;;;;;2.15;0.33;;;;;;;;;;1841110;77;26270;-58
2022/09/19 06:17:48;;;;;;;0.60;0.40;;;;;;;;;;1843353;77;26318;-59
2022/09/19 06:20:15;;;;;;;5.53;0.47;;;;;;;;;;1840385;77;27414;-66
2022/09/19 06:22:42;;;;;;;1.45;0.30;;;;;;;;;;1847086;77;26287;-56
2022/09/19 06:25:09;;;;;;;0.60;0.30;;;;;;;;;;1860703;77;26252;-60
2022/09/19 06:27:37;;;;;;;0.82;0.40;;;;;;;;;;1855892;77;26264;-55
2022/09/19 06:30:05;;;;;;;1.32;0.50;;;;;;;;;;1865096;77;26259;-56
2022/09/19 06:32:32;;;;;;;2.05;0.40;;;;;;;;;;1847424;77;26298;-58
2022/09/19 06:34:59;;;;;;;0.30;0.30;;;;;;;;;;1852390;77;26290;-59
2022/09/19 06:37:27;;;;;;;0.62;0.23;;;;;;;;;;1854148;77;26258;-57
2022/09/19 06:39:54;;;;;;;0.30;0.30;;;;;;;;;;1861489;77;26333;-62
2022/09/19 06:42:21;;;;;;;1.07;0.30;;;;;;;;;;1842987;77;26293;-57
2022/09/19 06:44:49;;;;;;;0.30;0.23;;;;;;;;;;1857857;77;26845;-62
2022/09/19 06:47:17;;;;;;;1.00;0.20;;;;;;;;;;1863980;77;26286;-58
2022/09/19 06:49:44;;;;;;;0.20;0.20;;;;;;;;;;1866904;77;26207;-55
2022/09/19 06:52:12;;;;;;;0.10;0.10;;;;;;;;;;1856780;77;26312;-51
2022/09/19 06:54:39;;;;;;;0.57;0.28;;;;;;;;;;1851739;77;26267;-48
2022/09/19 06:57:07;;;;;;;0.45;0.30;;;;;;;;;;1849558;77;27182;-66
2022/09/19 06:59:34;;;;;;;0.70;0.20;;;;;;;;;;1842510;77;26302;-66
2022/09/19 07:02:01;;;;;;;0.82;0.30;;;;;;;;;;1851855;77;26243;-60
2022/09/19 07:04:28;;;;;;;1.65;0.20;;;;;;;;;;1863914;77;26298;-61
2022/09/19 07:06:56;;;;;;;0.13;0.13;;;;;;;;;;1861716;77;26232;-58
2022/09/19 07:09:24;;;;;;;1.98;0.20;;;;;;;;;;1855251;77;26844;-68
2022/09/19 07:11:54;;;;;;;0.17;0.17;;;;;;;;;;1841865;77;26792;-65
2022/09/19 07:14:21;;;;;;;0.28;0.28;;;;;;;;;;1859171;76;26268;-60
2022/09/19 07:16:48;;;;;;;0.55;0.20;;;;;;;;;;1860309;77;26250;-59
2022/09/19 07:19:16;;;;;;;1.22;0.30;;;;;;;;;;1854100;77;26283;-61
2022/09/19 07:21:45;;;;;;;3.10;0.20;;;;;;;;;;1860010;77;26349;-64
2022/09/19 07:24:12;;;;;;;0.10;0.10;;;;;;;;;;1848583;77;26256;-65
2022/09/19 07:26:39;;;;;;;0.35;0.20;;;;;;;;;;1841924;77;26392;-60
2022/09/19 07:29:07;;;;;;;1.35;0.30;;;;;;;;;;1838759;77;26315;-57
2022/09/19 07:31:34;;;;;;;0.30;0.20;;;;;;;;;;1843599;77;26309;-60
2022/09/19 07:34:01;;;;;;;1.52;0.10;;;;;;;;;;1837363;77;26317;-60
2022/09/19 07:36:29;;;;;;;1.40;0.20;;;;;;;;;;1852022;77;26271;-62
2022/09/19 07:38:56;;;;;;;0.23;0.10;;;;;;;;;;1867754;77;26274;-62
2022/09/19 07:41:23;;;;;;;0.70;0.20;;;;;;;;;;1861619;77;26260;-63
2022/09/19 07:43:51;;;;;;;0.20;0.20;;;;;;;;;;1840917;77;26283;-58
2022/09/19 07:46:18;;;;;;;0.10;0.10;;;;;;;;;;1866022;76;26279;-59
2022/09/19 07:48:48;;;;;;;0.82;0.20;;;;;;;;;;1859593;77;26321;-59
2022/09/19 07:51:15;;;;;;;0.20;0.20;;;;;;;;;;1861590;77;26266;-58
2022/09/19 07:53:43;;;;;;;0.47;0.28;;;;;;;;;;1853517;77;26341;-60
2022/09/19 07:56:10;;;;;;;0.35;0.13;;;;;;;;;;1864856;77;26345;-59
2022/09/19 07:58:38;;;;;;;0.35;0.20;;;;;;;;;;1848850;77;26283;-58
2022/09/19 08:01:05;;;;;;;0.10;0.10;;;;;;;;;;1841528;77;26376;-56
2022/09/19 08:03:33;;;;;;;0.17;0.17;;;;;;;;;;1867665;77;26322;-64
2022/09/19 08:06:01;;;;;;;6.75;0.30;;;;;;;;;;1851172;77;26521;-60
2022/09/19 08:08:29;;;;;;;1.37;0.20;;;;;;;;;;1856825;77;26283;-59
2022/09/19 08:11:02;;;;;;;0.10;0.10;;;;;;;;;;1860712;76;26262;-61
2022/09/19 08:13:30;;;;;;;1.65;0.20;;;;;;;;;;1849870;77;26295;-59
2022/09/19 08:15:57;;;;;;;0.20;0.20;;;;;;;;;;1848328;77;26259;-60
2022/09/19 08:18:26;;;;;;;0.10;0.10;;;;;;;;;;1861437;77;26310;-58
2022/09/19 08:20:53;;;;;;;0.30;0.10;;;;;;;;;;1863720;76;26429;-64
2022/09/19 08:23:21;;;;;;;0.10;0.10;;;;;;;;;;1850733;77;26752;-65
2022/09/19 08:25:51;;;;;;;0.15;0.15;;;;;;;;;;1871255;76;26221;-63
2022/09/19 08:28:20;;;;;;;1.50;0.10;;;;;;;;;;1844486;76;26268;-53
2022/09/19 08:30:47;;;;;;;0.10;0.10;;;;;;;;;;1839656;77;26749;-57
2022/09/19 08:33:16;;;;;;;0.10;0.10;;;;;;;;;;1862113;76;26320;-57
2022/09/19 08:35:44;;;;;;;0.10;0.10;;;;;;;;;;1877780;76;26589;-58
2022/09/19 08:38:13;;;;;;;0.20;0.20;;;;;;;;;;1832247;77;26765;-55
2022/09/19 08:40:45;;;;;;;0.10;0.10;;;;;;;;;;1817974;77;27340;-63
2022/09/19 08:43:17;;;;;;;0.13;0.10;;;;;;;;;;1817185;77;26290;-59
2022/09/19 08:45:48;;;;;;;0.62;0.17;;;;;;;;;;1823730;77;26261;-65
2022/09/19 08:48:20;;;;;;;1.17;0.20;;;;;;;;;;1828097;77;26218;-63
2022/09/19 08:50:49;;;;;;;0.30;0.30;;;;;;;;;;1826658;77;26229;-64
2022/09/19 08:53:19;;;;;;;0.13;0.13;;;;;;;;;;1826538;77;26729;-65
2022/09/19 08:55:49;;;;;;;0.10;0.10;;;;;;;;;;1815496;78;26270;-65
2022/09/19 08:58:18;;;;;;;0.10;0.10;;;;;;;;;;1849182;77;26742;-63
2022/09/19 09:00:47;;;;;;;0.10;0.10;;;;;;;;;;1840832;77;26253;-66
2022/09/19 09:03:16;;;;;;;0.55;0.17;;;;;;;;;;1840918;77;26394;-63
2022/09/19 09:05:45;;;;;;;0.23;0.23;;;;;;;;;;1860044;76;26724;-65
2022/09/19 09:08:19;;;;;;;0.10;0.10;;;;;;;;;;1860583;76;26220;-65
2022/09/19 09:10:57;;;;;;;0.10;0.10;;;;;;;;;;1829054;77;26295;-64
2022/09/19 09:13:36;;;;;;;0.10;0.10;;;;;;;;;;1855684;76;26297;-65
2022/09/19 09:16:13;;;;;;;0.17;0.17;;;;;;;;;;1843064;76;26309;-64
2022/09/19 09:19:02;;;;;;;0.05;0.05;;;;;;;;;;1860941;76;26285;-58
2022/09/19 09:21:34;;;;;;;0.33;0.10;;;;;;;;;;1827695;77;28030;-59
2022/09/19 09:24:06;;;;;;;0.10;0.10;;;;;;;;;;1830662;77;26319;-60
2022/09/19 09:26:36;;;;;;;0.10;0.10;;;;;;;;;;1859643;76;26887;-61
2022/09/19 09:29:11;;;;;;;0.20;0.20;;;;;;;;;;1858687;76;26332;-64
2022/09/19 09:31:38;;;;;;;0.33;0.15;;;;;;;;;;1812416;77;26432;-65
2022/09/19 09:34:13;;;;;;;0.20;0.20;;;;;;;;;;1859624;76;26303;-66
2022/09/19 09:36:42;;;;;;;0.10;0.10;;;;;;;;;;1863639;76;26310;-63
2022/09/19 09:39:11;;;;;;;0.10;0.10;;;;;;;;;;1821004;77;26816;-61
2022/09/19 09:41:47;;;;;;;0.10;0.10;;;;;;;;;;1851281;76;26364;-62
2022/09/19 09:44:26;;;;;;;0.60;0.10;;;;;;;;;;1853734;76;26375;-61
2022/09/19 09:46:58;;;;;;;0.10;0.10;;;;;;;;;;1855465;76;26416;-63
2022/09/19 09:49:27;;;;;;;0.10;0.10;;;;;;;;;;1846257;76;26333;-62
2022/09/19 09:52:08;;;;;;;1.17;0.20;;;;;;;;;;1852299;76;26335;-62
2022/09/19 09:57:39;;;;;;;0.20;0.20;;;;;;;;;;1863009;76;26319;-62
2022/09/19 10:06:03;;;;;;;1.07;0.10;;;;;;;;;;1855922;76;26719;-61
2022/09/19 10:08:40;;;;;;;0.10;0.10;;;;;;;;;;1830935;77;26809;-62
2022/09/19 10:14:02;;;;;;;0.50;0.50;;;;;;;;;;1763210;80;26442;-61
2022/09/19 10:16:34;;;;;;;0.55;0.55;;;;;;;;;;1768810;80;26283;-62
2022/09/19 10:19:17;;;;;;;0.50;0.50;;;;;;;;;;1725639;82;27513;-62
2022/09/19 10:21:45;;;;;;;1.20;1.20;;;;;;;;;;1766067;80;26343;-62
2022/09/19 10:24:30;;;;;;;3.80;3.40;;;;;;;;;;1735527;81;26378;-62
2022/09/19 10:27:00;;;;;;;7.20;6.53;;;;;;;;;;1770103;80;27526;-62
2022/09/19 10:29:26;;;;;;;12.88;11.33;;;;;;;;;;1742025;80;27089;-64
2022/09/19 10:31:57;;;;;;;14.53;12.75;;;;;;;;;;1739573;80;26428;-61
2022/09/19 10:34:26;;;;;;;15.35;13.68;;;;;;;;;;1741928;80;27795;-61
2022/09/19 10:36:53;;;;;;;16.57;14.35;;;;;;;;;;1737899;80;26425;-62
2022/09/19 10:39:23;;;;;;;17.17;14.93;;;;;;;;;;1739863;80;26393;-62
2022/09/19 10:41:50;;;;;;;18.25;15.60;;;;;;;;;;1743542;80;26309;-62
2022/09/19 10:44:22;;;;;;;18.82;15.98;;;;;;;;;;1743369;80;26797;-63
2022/09/19 10:46:52;;;;;;;18.00;15.65;;;;;;;;;;1739300;80;26357;-62
2022/09/19 10:49:25;;;;;;;17.95;15.98;;;;;;;;;;1740854;80;26342;-62
2022/09/19 10:51:54;;;;;;;18.95;15.58;;;;;;;;;;1740581;80;26830;-62
2022/09/19 10:54:23;;;;;;;16.82;14.98;;;;;;;;;;1741853;80;26810;-62
2022/09/19 10:56:51;;;;;;;18.35;14.80;;;;;;;;;;1738614;80;26777;-62
2022/09/19 10:59:20;;;;;;;16.93;14.15;;;;;;;;;;1738653;80;26426;-62
2022/09/19 11:02:06;;;;;;;15.45;13.55;;;;;;;;;;1741073;80;26404;-62
2022/09/19 11:04:35;;;;;;;15.50;13.72;;;;;;;;;;1742271;80;26353;-62
2022/09/19 11:07:04;;;;;;;14.98;13.35;;;;;;;;;;1765579;80;26344;-64
2022/09/19 11:09:36;;;;;;;15.50;13.20;;;;;;;;;;1763349;80;26380;-65
2022/09/19 11:12:09;;;;;;;14.65;12.85;;;;;;;;;;1762474;80;26838;-66
2022/09/19 11:14:44;;;;;;;13.95;12.45;;;;;;;;;;1741725;80;26708;-61
2022/09/19 11:17:17;;;;;;;13.95;12.47;;;;;;;;;;1735943;81;26323;-64
2022/09/19 11:20:02;;;;;;;13.62;12.03;;;;;;;;;;1743079;81;26700;-61
2022/09/19 11:22:37;;;;;;;13.18;11.68;;;;;;;;;;1737500;81;26296;-62
2022/09/19 11:25:09;;;;;;;24.85;11.40;;;;;;;;;;1740370;81;26291;-60
2022/09/19 11:27:40;;;;;;;13.13;11.12;;;;;;;;;;1740857;81;26235;-59
2022/09/19 11:30:11;;;;;;;11.70;10.58;;;;;;;;;;1741631;81;26295;-59
2022/09/19 11:32:44;;;;;;;11.93;10.13;;;;;;;;;;1740351;81;26311;-61
2022/09/19 11:35:23;;;;;;;10.88;9.78;;;;;;;;;;1740421;81;26342;-63
2022/09/19 11:38:02;;;;;;;10.70;9.60;;;;;;;;;;1741159;80;26304;-61
2022/09/19 11:40:47;;;;;;;10.10;9.10;;;;;;;;;;1739912;81;26381;-69
2022/09/19 11:43:22;;;;;;;10.75;9.30;;;;;;;;;;1740693;81;26378;-63
2022/09/19 11:45:56;;;;;;;9.45;8.55;;;;;;;;;;1743110;81;26372;-63
2022/09/19 11:48:27;;;;;;;9.20;8.30;;;;;;;;;;1741946;81;26375;-60
2022/09/19 11:51:05;;;;;;;8.70;7.90;;;;;;;;;;1735900;80;27283;-66
2022/09/19 11:53:46;;;;;;;8.03;7.33;;;;;;;;;;1741556;81;26339;-66
2022/09/19 11:56:17;;;;;;;8.55;7.75;;;;;;;;;;1743091;81;26272;-61
2022/09/19 11:58:48;;;;;;;7.62;6.92;;;;;;;;;;1740331;81;26232;-60
2022/09/19 12:01:16;;;;;;;7.03;6.42;;;;;;;;;;1743274;81;26325;-60
2022/09/19 12:03:46;;;;;;;7.62;6.90;;;;;;;;;;1740379;81;26315;-62
2022/09/19 12:06:16;;;;;;;7.28;6.58;;;;;;;;;;1740834;81;26768;-59
2022/09/19 12:08:48;;;;;;;6.78;6.17;;;;;;;;;;1737332;81;26252;-59
2022/09/19 12:11:19;;;;;;;6.97;6.28;;;;;;;;;;1744249;81;26339;-59
2022/09/19 12:13:47;;;;;;;6.85;6.22;;;;;;;;;;1738110;81;26347;-62
2022/09/19 12:16:24;;;;;;;7.05;5.80;;;;;;;;;;1738933;81;26388;-62
2022/09/19 12:18:55;;;;;;;6.08;5.58;;;;;;;;;;1745315;81;26500;-64
2022/09/19 12:21:24;;;;;;;5.90;5.40;;;;;;;;;;1741384;81;26895;-64
2022/09/19 12:26:49;;;;;;;5.50;5.00;;;;;;;;;;1742131;81;26934;-63
2022/09/19 12:29:21;;;;;;;5.17;4.78;;;;;;;;;;1740901;81;26775;-62
2022/09/19 12:31:50;;;;;;;5.15;4.75;;;;;;;;;;1738450;81;26284;-63
2022/09/19 12:34:37;;;;;;;4.78;4.37;;;;;;;;;;1741370;81;26880;-64
2022/09/19 12:37:15;;;;;;;4.75;4.35;;;;;;;;;;1741730;81;26878;-66
2022/09/19 12:39:46;;;;;;;4.42;4.03;;;;;;;;;;1744183;81;26405;-63
2022/09/19 12:42:15;;;;;;;3.95;3.72;;;;;;;;;;1741183;81;26690;-65
2022/09/19 12:44:52;;;;;;;4.17;3.83;;;;;;;;;;1739687;81;26393;-63
2022/09/19 12:47:37;;;;;;;4.03;3.72;;;;;;;;;;1740631;81;26318;-64
2022/09/19 12:50:17;;;;;;;3.85;3.40;;;;;;;;;;1740947;81;26781;-64
2022/09/19 12:52:47;;;;;;;3.65;3.40;;;;;;;;;;1741690;80;26370;-61
2022/09/19 12:55:19;;;;;;;3.42;3.22;;;;;;;;;;1743635;81;26311;-65
2022/09/19 12:57:50;;;;;;;3.30;3.10;;;;;;;;;;1741061;81;26350;-65
2022/09/19 13:00:18;;;;;;;3.10;2.90;;;;;;;;;;1741565;81;26417;-66
2022/09/19 13:02:48;;;;;;;2.92;2.80;;;;;;;;;;1743880;81;26284;-65
2022/09/19 13:05:22;;;;;;;3.12;2.80;;;;;;;;;;1741089;81;26385;-59
2022/09/19 13:07:48;;;;;;;2.70;2.52;;;;;;;;;;1737079;81;26380;-63
2022/09/19 13:10:16;;;;;;;2.60;2.50;;;;;;;;;;1741115;81;26359;-63
2022/09/19 13:12:55;;;;;;;2.47;2.37;;;;;;;;;;1740233;81;26724;-61
2022/09/19 13:15:24;;;;;;;2.40;2.30;;;;;;;;;;1742419;81;26418;-62
2022/09/19 13:23:32;;;;;;;2.50;2.30;;;;;;;;;;1744641;81;26807;-61
2022/09/19 13:26:17;;;;;;;2.42;2.33;;;;;;;;;;1743037;81;26808;-63
2022/09/19 13:28:45;;;;;;;2.40;2.30;;;;;;;;;;1741239;81;26434;-61
2022/09/19 13:31:17;;;;;;;2.90;2.60;;;;;;;;;;1742864;81;26429;-66
2022/09/19 13:33:50;;;;;;;2.90;2.70;;;;;;;;;;1738154;81;26354;-65
2022/09/19 13:36:19;;;;;;;3.20;2.90;;;;;;;;;;1742344;81;26312;-69
2022/09/19 13:38:48;;;;;;;3.02;2.83;;;;;;;;;;1737113;81;26429;-67
2022/09/19 13:41:19;;;;;;;4.67;3.58;;;;;;;;;;1741513;80;26362;-59
2022/09/19 13:43:49;;;;;;;3.67;3.37;;;;;;;;;;1740437;81;26287;-58
2022/09/19 13:46:23;;;;;;;3.12;2.92;;;;;;;;;;1734641;81;26787;-54
2022/09/19 13:48:52;;;;;;;2.85;2.65;;;;;;;;;;1742718;81;26797;-58
2022/09/19 13:51:28;;;;;;;3.90;2.92;;;;;;;;;;1742554;81;26788;-58
2022/09/19 13:54:16;;;;;;;3.30;2.95;;;;;;;;;;1742190;81;26397;-62
2022/09/19 13:56:44;;;;;;;3.17;2.70;;;;;;;;;;1743342;81;26314;-58
2022/09/19 13:59:29;;;;;;;3.27;2.98;;;;;;;;;;1737981;81;26301;-62
2022/09/19 14:02:01;;;;;;;2.60;2.40;;;;;;;;;;1739560;81;26354;-56
2022/09/19 14:07:23;;;;;;;4.67;2.33;;;;;;;;;;1743509;80;26319;-58
2022/09/19 14:09:50;;;;;;;2.87;2.12;;;;;;;;;;1739245;81;26407;-66
2022/09/19 14:12:38;;;;;;;2.10;2.00;;;;;;;;;;1744567;81;27342;-64
2022/09/19 14:15:27;;;;;;;4.20;2.10;;;;;;;;;;1740548;81;26332;-63
2022/09/19 14:18:13;;;;;;;2.10;2.00;;;;;;;;;;1738692;81;26399;-61
2022/09/19 14:20:47;;;;;;;2.52;2.10;;;;;;;;;;1742347;81;26311;-58
2022/09/19 14:23:16;;;;;;;3.12;1.70;;;;;;;;;;1737896;81;26323;-58
2022/09/19 14:25:46;;;;;;;1.80;1.70;;;;;;;;;;1743604;81;26664;-61
2022/09/19 14:28:21;;;;;;;1.70;1.60;;;;;;;;;;1743928;81;26322;-54
2022/09/19 14:30:56;;;;;;;1.70;1.60;;;;;;;;;;1742191;81;26927;-61
2022/09/19 14:33:30;;;;;;;1.82;1.72;;;;;;;;;;1739008;81;27222;-56
2022/09/19 14:36:16;;;;;;;1.52;1.50;;;;;;;;;;1742068;81;26679;-55
2022/09/19 14:38:48;;;;;;;1.57;1.50;;;;;;;;;;1740163;81;26833;-56
2022/09/19 14:41:20;;;;;;;1.60;1.50;;;;;;;;;;1733683;81;26425;-58
2022/09/19 14:43:49;;;;;;;1.55;1.47;;;;;;;;;;1739524;81;26944;-61
2022/09/19 14:46:28;;;;;;;1.40;1.30;;;;;;;;;;1738771;81;26309;-57
2022/09/19 14:49:01;;;;;;;1.62;1.52;;;;;;;;;;1740791;81;26697;-59
2022/09/19 14:51:35;;;;;;;1.20;1.10;;;;;;;;;;1741244;81;26405;-60
2022/09/19 14:54:13;;;;;;;1.25;1.20;;;;;;;;;;1740024;81;26301;-59
2022/09/19 14:56:40;;;;;;;2.25;1.30;;;;;;;;;;1738835;81;26720;-61
2022/09/19 14:59:09;;;;;;;2.08;1.12;;;;;;;;;;1741187;81;26861;-65
2022/09/19 15:01:37;;;;;;;1.50;1.40;;;;;;;;;;1739824;81;26695;-58
2022/09/19 15:04:16;;;;;;;1.40;1.12;;;;;;;;;;1739786;81;26295;-64
2022/09/19 15:06:47;;;;;;;1.37;1.27;;;;;;;;;;1738772;81;26346;-63
2022/09/19 15:09:32;;;;;;;1.20;1.10;;;;;;;;;;1740115;81;26331;-64
2022/09/19 15:12:00;;;;;;;1.10;1.07;;;;;;;;;;1738043;81;26315;-59
2022/09/19 15:14:31;;;;;;;2.17;1.07;;;;;;;;;;1738888;81;26378;-60
2022/09/19 15:17:12;;;;;;;1.00;1.00;;;;;;;;;;1736156;81;26394;-60
2022/09/19 15:19:43;;;;;;;1.20;1.10;;;;;;;;;;1737978;81;26301;-61
2022/09/19 15:22:18;;;;;;;1.47;1.00;;;;;;;;;;1737395;80;26750;-60
2022/09/19 15:24:50;;;;;;;1.60;1.02;;;;;;;;;;1739582;80;27518;-66
2022/09/19 15:27:16;;;;;;;0.93;0.93;;;;;;;;;;1736679;81;26402;-63
2022/09/19 15:29:47;;;;;;;0.98;0.98;;;;;;;;;;1740524;81;26358;-59
2022/09/19 15:32:33;;;;;;;0.82;0.80;;;;;;;;;;1737356;81;26352;-61